»·PEaware :: N51151 KW36-KELN

N51151 :: KW36-KELN

FLIGHT INFORMATION

Flight Status: Arrived
Operator: Privately registered:
United States
More flights under this callsign
Pilot: Alan J. (5709)
Aircraft: GRUMMAN AERO G-73 MALLARD
(G73T)
More flights by this aircraft type
Origin: KW36
Destination: KELN Bowers
United States
More flights between these airports :: More routes between these airports
Route: SEA V2 ELN
File this flight plan on PilotEdge
Remarks:
Altitude:
(Current/Filed)
9,000ft
Speed:
(Current/Filed)
190kts
Departed: 19-Jun-20 08:40 PM
Arrived: 19-Jun-20 09:20 PM
Distance/Time
Traveled:
Not Available
Distance/Time
To Go:
Arrived

Flight Plot

Page will automatically refresh every two minutes.

Flight plan parsing failed; only flown route is shown


Map Options




Map Legend


Flown Route
Filed Route
Departure Airport
Arrival Airport
Navaid (VOR, NDB)
Fix

Horizontal Profiles

Position Reports

Time Latitude Longitude Heading Altitude Ground
Speed
19-Jun-20 20:29 47.497583 -122.218545 174 31ft 0kts
19-Jun-20 20:30 47.497583 -122.218545 174 31ft 0kts
19-Jun-20 20:31 47.497583 -122.218545 174 31ft 0kts
19-Jun-20 20:32 47.497527 -122.218514 149 31ft 0kts
19-Jun-20 20:33 47.499891 -122.217829 30 31ft 9kts
19-Jun-20 20:34 47.500054 -122.217723 19 31ft 0kts
19-Jun-20 20:35 47.500055 -122.217723 19 31ft 0kts
19-Jun-20 20:36 47.500056 -122.217722 19 31ft 0kts
19-Jun-20 20:37 47.501475 -122.217759 329 21ft 1kts
19-Jun-20 20:38 47.502207 -122.220278 344 21ft 5kts
19-Jun-20 20:39 47.503384 -122.210941 80 25ft 83kts
19-Jun-20 20:40 47.494748 -122.180848 139 879ft 99kts
19-Jun-20 20:41 47.472202 -122.154439 124 1423ft 115kts
19-Jun-20 20:42 47.461309 -122.107350 94 2320ft 131kts
19-Jun-20 20:43 47.440336 -122.072904 139 3632ft 136kts
19-Jun-20 20:44 47.410719 -122.035352 139 5180ft 141kts
19-Jun-20 20:45 47.385310 -121.994868 128 7119ft 129kts
19-Jun-20 20:46 47.367965 -121.950299 118 8981ft 128kts
19-Jun-20 20:47 47.348287 -121.884070 112 9044ft 203kts
19-Jun-20 20:48 47.328944 -121.804246 109 9053ft 206kts
19-Jun-20 20:49 47.311670 -121.725265 109 9072ft 200kts
19-Jun-20 20:50 47.294705 -121.647154 109 9091ft 200kts
19-Jun-20 20:51 47.277575 -121.569345 109 9108ft 200kts
19-Jun-20 20:52 47.260335 -121.491482 109 9122ft 200kts
19-Jun-20 20:53 47.242925 -121.413790 109 9131ft 200kts
19-Jun-20 20:54 47.225918 -121.335612 109 9134ft 200kts
19-Jun-20 20:55 47.209637 -121.257303 108 9130ft 200kts
19-Jun-20 20:56 47.193536 -121.178838 109 9117ft 201kts
19-Jun-20 20:57 47.176678 -121.100125 109 9096ft 201kts
19-Jun-20 20:58 47.159028 -121.022239 111 9080ft 201kts
19-Jun-20 20:59 47.139659 -120.943654 112 9040ft 202kts
19-Jun-20 21:00 47.121745 -120.865226 104 8938ft 205kts
19-Jun-20 21:01 47.112926 -120.779407 99 7459ft 213kts
19-Jun-20 21:02 47.105394 -120.693165 99 6063ft 203kts
19-Jun-20 21:04 47.098717 -120.615053 102 5892ft 191kts
19-Jun-20 21:05 47.089332 -120.545956 104 5075ft 157kts
19-Jun-20 21:06 47.079232 -120.478619 104 4970ft 184kts
19-Jun-20 21:07 47.065000 -120.404585 122 4963ft 187kts
19-Jun-20 21:08 47.032303 -120.344998 131 4968ft 188kts
19-Jun-20 21:09 46.996409 -120.290059 164 4942ft 177kts
19-Jun-20 21:10 46.962348 -120.322925 275 4259ft 148kts
19-Jun-20 21:11 46.989157 -120.361600 322 4088ft 133kts
19-Jun-20 21:12 47.018608 -120.345217 86 4097ft 135kts
19-Jun-20 21:13 47.002741 -120.296785 138 4070ft 136kts
19-Jun-20 21:14 46.976338 -120.314189 230 4120ft 113kts
19-Jun-20 21:15 46.965147 -120.358641 270 3822ft 136kts
19-Jun-20 21:16 46.978119 -120.413589 294 2978ft 146kts
19-Jun-20 21:17 46.997776 -120.457105 301 2765ft 109kts
19-Jun-20 21:18 47.009990 -120.489128 304 2373ft 75kts
19-Jun-20 21:18 47.021264 -120.507687 313 2085ft 74kts
19-Jun-20 21:20 47.035215 -120.529440 312 1771ft 25kts
19-Jun-20 21:21 47.034919 -120.531254 213 1771ft 3kts
19-Jun-20 21:21 47.032177 -120.533856 212 1771ft 18kts
19-Jun-20 21:23 47.030515 -120.536161 266 1771ft 3kts
19-Jun-20 21:23 47.030066 -120.536959 179 1771ft 5kts
19-Jun-20 21:25 47.029774 -120.536949 177 1771ft 0kts

Navigation Log

Ident Type
Flight plan parsing failed, navigation log unavailable